sensor_id;sensor_type;location;lat;lon;timestamp;P1;durP1;ratioP1;P2;durP2;ratioP2
82656;SDS011;72357;52.110;5.252;2023-08-24T00:00:48;9.6;;;6.0;;
82656;SDS011;72357;52.110;5.252;2023-08-24T00:02:24;9.71;;;6.7;;
82656;SDS011;72357;52.110;5.252;2023-08-24T00:04:00;10.3;;;6.8;;
82656;SDS011;72357;52.110;5.252;2023-08-24T00:07:13;9.0;;;6.1;;
82656;SDS011;72357;52.110;5.252;2023-08-24T00:08:49;9.31;;;7.1;;
82656;SDS011;72357;52.110;5.252;2023-08-24T00:10:25;6.9;;;6.2;;
82656;SDS011;72357;52.110;5.252;2023-08-24T00:13:37;8.81;;;6.0;;
82656;SDS011;72357;52.110;5.252;2023-08-24T00:15:14;10.21;;;6.8;;
82656;SDS011;72357;52.110;5.252;2023-08-24T00:16:50;9.0;;;6.8;;
82656;SDS011;72357;52.110;5.252;2023-08-24T00:18:26;9.1;;;6.5;;
82656;SDS011;72357;52.110;5.252;2023-08-24T00:21:39;9.0;;;6.6;;
82656;SDS011;72357;52.110;5.252;2023-08-24T00:23:16;9.5;;;6.9;;
82656;SDS011;72357;52.110;5.252;2023-08-24T00:24:52;11.2;;;7.4;;
82656;SDS011;72357;52.110;5.252;2023-08-24T00:28:04;13.1;;;8.0;;
82656;SDS011;72357;52.110;5.252;2023-08-24T00:29:41;9.31;;;6.9;;
82656;SDS011;72357;52.110;5.252;2023-08-24T00:31:17;8.2;;;7.0;;
82656;SDS011;72357;52.110;5.252;2023-08-24T00:34:30;10.1;;;7.5;;
82656;SDS011;72357;52.110;5.252;2023-08-24T00:36:06;8.0;;;7.2;;
82656;SDS011;72357;52.110;5.252;2023-08-24T00:37:43;9.4;;;7.8;;
82656;SDS011;72357;52.110;5.252;2023-08-24T00:39:19;8.81;;;7.8;;
82656;SDS011;72357;52.110;5.252;2023-08-24T00:42:31;8.81;;;7.9;;
82656;SDS011;72357;52.110;5.252;2023-08-24T00:44:08;8.71;;;7.8;;
82656;SDS011;72357;52.110;5.252;2023-08-24T00:45:44;12.0;;;8.1;;
82656;SDS011;72357;52.110;5.252;2023-08-24T00:48:57;9.31;;;7.9;;
82656;SDS011;72357;52.110;5.252;2023-08-24T00:50:33;9.9;;;7.3;;
82656;SDS011;72357;52.110;5.252;2023-08-24T00:52:11;10.1;;;6.6;;
82656;SDS011;72357;52.110;5.252;2023-08-24T00:55:24;8.81;;;7.1;;
82656;SDS011;72357;52.110;5.252;2023-08-24T00:57:00;9.0;;;7.3;;
82656;SDS011;72357;52.110;5.252;2023-08-24T00:58:36;9.81;;;7.2;;
82656;SDS011;72357;52.110;5.252;2023-08-24T01:00:14;9.81;;;7.2;;
82656;SDS011;72357;52.110;5.252;2023-08-24T01:03:28;9.81;;;7.1;;
82656;SDS011;72357;52.110;5.252;2023-08-24T01:05:05;11.6;;;7.2;;
82656;SDS011;72357;52.110;5.252;2023-08-24T01:06:42;9.31;;;7.4;;
82656;SDS011;72357;52.110;5.252;2023-08-24T01:09:55;13.3;;;6.7;;
82656;SDS011;72357;52.110;5.252;2023-08-24T01:11:33;8.0;;;6.7;;
82656;SDS011;72357;52.110;5.252;2023-08-24T01:13:34;8.9;;;7.3;;
82656;SDS011;72357;52.110;5.252;2023-08-24T01:15:22;9.6;;;6.7;;
82656;SDS011;72357;52.110;5.252;2023-08-24T01:17:15;9.1;;;7.2;;
82656;SDS011;72357;52.110;5.252;2023-08-24T01:20:36;8.4;;;6.8;;
82656;SDS011;72357;52.110;5.252;2023-08-24T01:22:18;10.4;;;7.0;;
82656;SDS011;72357;52.110;5.252;2023-08-24T01:24:10;10.6;;;7.3;;
82656;SDS011;72357;52.110;5.252;2023-08-24T01:25:54;9.31;;;7.1;;
82656;SDS011;72357;52.110;5.252;2023-08-24T01:27:38;10.0;;;6.4;;
82656;SDS011;72357;52.110;5.252;2023-08-24T01:30:53;10.0;;;7.0;;
82656;SDS011;72357;52.110;5.252;2023-08-24T01:32:30;11.1;;;8.2;;
82656;SDS011;72357;52.110;5.252;2023-08-24T01:34:06;10.0;;;8.31;;
82656;SDS011;72357;52.110;5.252;2023-08-24T01:37:18;9.71;;;7.0;;
82656;SDS011;72357;52.110;5.252;2023-08-24T01:38:57;11.0;;;8.0;;
82656;SDS011;72357;52.110;5.252;2023-08-24T01:40:45;7.4;;;5.9;;
82656;SDS011;72357;52.110;5.252;2023-08-24T01:42:30;7.3;;;6.1;;
82656;SDS011;72357;52.110;5.252;2023-08-24T01:44:12;8.81;;;5.7;;
82656;SDS011;72357;52.110;5.252;2023-08-24T01:47:29;5.9;;;3.9;;
82656;SDS011;72357;52.110;5.252;2023-08-24T01:49:06;6.2;;;4.0;;
82656;SDS011;72357;52.110;5.252;2023-08-24T01:50:44;9.5;;;4.61;;
82656;SDS011;72357;52.110;5.252;2023-08-24T01:53:59;8.31;;;5.8;;
82656;SDS011;72357;52.110;5.252;2023-08-24T01:55:36;8.6;;;7.6;;
82656;SDS011;72357;52.110;5.252;2023-08-24T01:57:13;11.3;;;8.2;;
82656;SDS011;72357;52.110;5.252;2023-08-24T01:58:49;9.5;;;7.8;;
82656;SDS011;72357;52.110;5.252;2023-08-24T02:02:03;11.1;;;8.6;;
82656;SDS011;72357;52.110;5.252;2023-08-24T02:03:40;8.31;;;7.5;;
82656;SDS011;72357;52.110;5.252;2023-08-24T02:05:16;10.4;;;8.5;;
82656;SDS011;72357;52.110;5.252;2023-08-24T02:08:28;11.1;;;8.71;;
82656;SDS011;72357;52.110;5.252;2023-08-24T02:10:05;11.7;;;8.9;;
82656;SDS011;72357;52.110;5.252;2023-08-24T02:11:42;10.8;;;9.31;;
82656;SDS011;72357;52.110;5.252;2023-08-24T02:14:54;9.81;;;8.81;;
82656;SDS011;72357;52.110;5.252;2023-08-24T02:16:30;12.8;;;8.81;;
82656;SDS011;72357;52.110;5.252;2023-08-24T02:18:06;11.2;;;9.5;;
82656;SDS011;72357;52.110;5.252;2023-08-24T02:19:42;13.0;;;10.6;;
82656;SDS011;72357;52.110;5.252;2023-08-24T02:22:55;10.21;;;9.1;;
82656;SDS011;72357;52.110;5.252;2023-08-24T02:24:31;11.2;;;9.4;;
82656;SDS011;72357;52.110;5.252;2023-08-24T02:26:07;10.7;;;9.6;;
82656;SDS011;72357;52.110;5.252;2023-08-24T02:29:19;11.4;;;9.5;;
82656;SDS011;72357;52.110;5.252;2023-08-24T02:30:59;11.6;;;10.4;;
82656;SDS011;72357;52.110;5.252;2023-08-24T02:32:36;11.6;;;10.4;;
82656;SDS011;72357;52.110;5.252;2023-08-24T02:35:49;13.7;;;9.81;;
82656;SDS011;72357;52.110;5.252;2023-08-24T02:37:25;10.6;;;9.5;;
82656;SDS011;72357;52.110;5.252;2023-08-24T02:39:01;12.6;;;9.9;;
82656;SDS011;72357;52.110;5.252;2023-08-24T02:40:38;14.3;;;10.5;;
82656;SDS011;72357;52.110;5.252;2023-08-24T02:43:50;10.4;;;9.4;;
82656;SDS011;72357;52.110;5.252;2023-08-24T02:45:26;11.1;;;9.5;;
82656;SDS011;72357;52.110;5.252;2023-08-24T02:47:03;12.3;;;10.21;;
82656;SDS011;72357;52.110;5.252;2023-08-24T02:50:16;13.0;;;11.2;;
82656;SDS011;72357;52.110;5.252;2023-08-24T02:51:52;13.2;;;10.7;;
82656;SDS011;72357;52.110;5.252;2023-08-24T02:53:29;12.6;;;10.9;;
82656;SDS011;72357;52.110;5.252;2023-08-24T02:56:43;14.5;;;11.0;;
82656;SDS011;72357;52.110;5.252;2023-08-24T02:58:20;14.8;;;11.2;;
82656;SDS011;72357;52.110;5.252;2023-08-24T02:59:56;12.6;;;11.4;;
82656;SDS011;72357;52.110;5.252;2023-08-24T03:03:08;11.7;;;10.5;;
82656;SDS011;72357;52.110;5.252;2023-08-24T03:04:44;13.5;;;10.1;;
82656;SDS011;72357;52.110;5.252;2023-08-24T03:06:20;14.4;;;11.7;;
82656;SDS011;72357;52.110;5.252;2023-08-24T03:07:58;11.8;;;10.0;;
82656;SDS011;72357;52.110;5.252;2023-08-24T03:11:11;11.7;;;10.3;;
82656;SDS011;72357;52.110;5.252;2023-08-24T03:12:48;16.0;;;12.1;;
82656;SDS011;72357;52.110;5.252;2023-08-24T03:14:24;14.1;;;12.1;;
82656;SDS011;72357;52.110;5.252;2023-08-24T03:17:40;17.0;;;14.3;;
82656;SDS011;72357;52.110;5.252;2023-08-24T03:19:17;15.9;;;13.2;;
82656;SDS011;72357;52.110;5.252;2023-08-24T03:20:53;18.5;;;15.4;;
82656;SDS011;72357;52.110;5.252;2023-08-24T03:24:05;16.7;;;14.1;;
82656;SDS011;72357;52.110;5.252;2023-08-24T03:25:42;16.61;;;14.8;;
82656;SDS011;72357;52.110;5.252;2023-08-24T03:27:19;16.11;;;14.4;;
82656;SDS011;72357;52.110;5.252;2023-08-24T03:28:55;18.8;;;13.6;;
82656;SDS011;72357;52.110;5.252;2023-08-24T03:32:08;15.6;;;13.0;;
82656;SDS011;72357;52.110;5.252;2023-08-24T03:35:22;15.6;;;14.0;;
82656;SDS011;72357;52.110;5.252;2023-08-24T03:38:34;16.61;;;14.9;;
82656;SDS011;72357;52.110;5.252;2023-08-24T03:40:11;17.0;;;14.5;;
82656;SDS011;72357;52.110;5.252;2023-08-24T03:41:48;19.3;;;15.0;;
82656;SDS011;72357;52.110;5.252;2023-08-24T03:45:00;17.8;;;15.7;;
82656;SDS011;72357;52.110;5.252;2023-08-24T03:46:37;17.2;;;15.2;;
82656;SDS011;72357;52.110;5.252;2023-08-24T03:48:13;15.3;;;13.7;;
82656;SDS011;72357;52.110;5.252;2023-08-24T03:49:49;16.0;;;13.9;;
82656;SDS011;72357;52.110;5.252;2023-08-24T03:53:02;15.0;;;13.5;;
82656;SDS011;72357;52.110;5.252;2023-08-24T03:54:39;16.8;;;14.1;;
82656;SDS011;72357;52.110;5.252;2023-08-24T03:56:14;17.5;;;14.7;;
82656;SDS011;72357;52.110;5.252;2023-08-24T03:59:27;18.8;;;15.2;;
82656;SDS011;72357;52.110;5.252;2023-08-24T04:01:03;15.2;;;13.3;;
82656;SDS011;72357;52.110;5.252;2023-08-24T04:02:39;17.5;;;15.3;;
82656;SDS011;72357;52.110;5.252;2023-08-24T04:05:52;17.8;;;16.0;;
82656;SDS011;72357;52.110;5.252;2023-08-24T04:07:28;19.2;;;15.2;;
82656;SDS011;72357;52.110;5.252;2023-08-24T04:09:05;18.8;;;16.3;;
82656;SDS011;72357;52.110;5.252;2023-08-24T04:10:43;21.4;;;16.4;;
82656;SDS011;72357;52.110;5.252;2023-08-24T04:13:55;17.7;;;15.9;;
82656;SDS011;72357;52.110;5.252;2023-08-24T04:15:31;19.61;;;16.2;;
82656;SDS011;72357;52.110;5.252;2023-08-24T04:17:07;17.0;;;15.4;;
82656;SDS011;72357;52.110;5.252;2023-08-24T04:20:20;17.0;;;15.4;;
82656;SDS011;72357;52.110;5.252;2023-08-24T04:21:56;19.2;;;15.2;;
82656;SDS011;72357;52.110;5.252;2023-08-24T04:23:32;17.3;;;15.5;;
82656;SDS011;72357;52.110;5.252;2023-08-24T04:26:45;15.9;;;14.3;;
82656;SDS011;72357;52.110;5.252;2023-08-24T04:28:21;18.61;;;15.9;;
82656;SDS011;72357;52.110;5.252;2023-08-24T04:29:57;17.61;;;15.3;;
82656;SDS011;72357;52.110;5.252;2023-08-24T04:31:33;17.8;;;15.4;;
82656;SDS011;72357;52.110;5.252;2023-08-24T04:34:46;18.11;;;16.2;;
82656;SDS011;72357;52.110;5.252;2023-08-24T04:36:22;19.11;;;17.2;;
82656;SDS011;72357;52.110;5.252;2023-08-24T04:37:58;19.11;;;16.8;;
82656;SDS011;72357;52.110;5.252;2023-08-24T04:41:10;16.5;;;14.8;;
82656;SDS011;72357;52.110;5.252;2023-08-24T04:42:46;18.2;;;14.9;;
82656;SDS011;72357;52.110;5.252;2023-08-24T04:44:22;20.8;;;17.2;;
82656;SDS011;72357;52.110;5.252;2023-08-24T04:47:36;21.0;;;17.0;;
82656;SDS011;72357;52.110;5.252;2023-08-24T04:49:12;16.0;;;14.4;;
82656;SDS011;72357;52.110;5.252;2023-08-24T04:50:48;18.2;;;16.3;;
82656;SDS011;72357;52.110;5.252;2023-08-24T04:54:01;17.2;;;15.5;;
82656;SDS011;72357;52.110;5.252;2023-08-24T04:55:38;18.5;;;16.5;;
82656;SDS011;72357;52.110;5.252;2023-08-24T04:57:15;20.41;;;16.2;;
82656;SDS011;72357;52.110;5.252;2023-08-24T04:58:53;18.2;;;16.3;;
82656;SDS011;72357;52.110;5.252;2023-08-24T05:02:06;22.4;;;16.61;;
82656;SDS011;72357;52.110;5.252;2023-08-24T05:03:42;18.61;;;16.0;;
82656;SDS011;72357;52.110;5.252;2023-08-24T05:05:19;18.11;;;16.3;;
82656;SDS011;72357;52.110;5.252;2023-08-24T05:08:32;20.2;;;16.4;;
82656;SDS011;72357;52.110;5.252;2023-08-24T05:10:08;20.41;;;17.0;;
82656;SDS011;72357;52.110;5.252;2023-08-24T05:11:45;18.8;;;16.8;;
82656;SDS011;72357;52.110;5.252;2023-08-24T05:13:22;20.7;;;16.8;;
82656;SDS011;72357;52.110;5.252;2023-08-24T05:16:34;21.9;;;17.7;;
82656;SDS011;72357;52.110;5.252;2023-08-24T05:18:10;18.41;;;16.4;;
82656;SDS011;72357;52.110;5.252;2023-08-24T05:19:50;20.7;;;17.11;;
82656;SDS011;72357;52.110;5.252;2023-08-24T05:23:03;21.6;;;17.0;;
82656;SDS011;72357;52.110;5.252;2023-08-24T05:26:15;20.41;;;17.3;;
82656;SDS011;72357;52.110;5.252;2023-08-24T05:29:27;18.41;;;16.0;;
82656;SDS011;72357;52.110;5.252;2023-08-24T05:31:03;20.0;;;17.41;;
82656;SDS011;72357;52.110;5.252;2023-08-24T05:32:40;18.61;;;16.61;;
82656;SDS011;72357;52.110;5.252;2023-08-24T05:35:52;19.0;;;16.11;;
82656;SDS011;72357;52.110;5.252;2023-08-24T05:37:29;20.7;;;18.5;;
82656;SDS011;72357;52.110;5.252;2023-08-24T05:39:05;19.5;;;17.41;;
82656;SDS011;72357;52.110;5.252;2023-08-24T05:40:41;18.3;;;16.5;;
82656;SDS011;72357;52.110;5.252;2023-08-24T05:43:54;21.4;;;17.3;;
82656;SDS011;72357;52.110;5.252;2023-08-24T05:45:31;21.5;;;17.3;;
82656;SDS011;72357;52.110;5.252;2023-08-24T05:47:08;17.11;;;15.3;;
82656;SDS011;72357;52.110;5.252;2023-08-24T05:50:20;18.11;;;16.2;;
82656;SDS011;72357;52.110;5.252;2023-08-24T05:51:56;19.2;;;16.4;;
82656;SDS011;72357;52.110;5.252;2023-08-24T05:53:32;18.2;;;15.8;;
82656;SDS011;72357;52.110;5.252;2023-08-24T05:56:44;20.41;;;17.11;;
82656;SDS011;72357;52.110;5.252;2023-08-24T05:58:21;19.41;;;16.4;;
82656;SDS011;72357;52.110;5.252;2023-08-24T05:59:58;20.3;;;14.7;;
82656;SDS011;72357;52.110;5.252;2023-08-24T06:01:34;18.91;;;15.3;;
82656;SDS011;72357;52.110;5.252;2023-08-24T06:04:46;18.8;;;15.2;;
82656;SDS011;72357;52.110;5.252;2023-08-24T06:06:22;21.5;;;15.3;;
82656;SDS011;72357;52.110;5.252;2023-08-24T06:07:58;16.0;;;14.5;;
82656;SDS011;72357;52.110;5.252;2023-08-24T06:11:10;15.7;;;13.9;;
82656;SDS011;72357;52.110;5.252;2023-08-24T06:12:47;16.61;;;13.8;;
82656;SDS011;72357;52.110;5.252;2023-08-24T06:14:23;17.41;;;13.6;;
82656;SDS011;72357;52.110;5.252;2023-08-24T06:17:36;14.3;;;12.8;;
82656;SDS011;72357;52.110;5.252;2023-08-24T06:19:15;16.11;;;12.9;;
82656;SDS011;72357;52.110;5.252;2023-08-24T06:20:52;15.7;;;12.7;;
82656;SDS011;72357;52.110;5.252;2023-08-24T06:22:29;16.7;;;12.7;;
82656;SDS011;72357;52.110;5.252;2023-08-24T06:25:42;19.41;;;13.4;;
82656;SDS011;72357;52.110;5.252;2023-08-24T06:27:19;18.0;;;13.5;;
82656;SDS011;72357;52.110;5.252;2023-08-24T06:28:55;14.5;;;12.1;;
82656;SDS011;72357;52.110;5.252;2023-08-24T06:32:07;18.8;;;13.7;;
82656;SDS011;72357;52.110;5.252;2023-08-24T06:33:43;17.2;;;13.6;;
82656;SDS011;72357;52.110;5.252;2023-08-24T06:35:19;14.5;;;12.9;;
82656;SDS011;72357;52.110;5.252;2023-08-24T06:38:38;14.9;;;13.3;;
82656;SDS011;72357;52.110;5.252;2023-08-24T06:40:14;16.5;;;13.7;;
82656;SDS011;72357;52.110;5.252;2023-08-24T06:41:50;18.0;;;13.4;;
82656;SDS011;72357;52.110;5.252;2023-08-24T06:43:26;13.7;;;12.3;;
82656;SDS011;72357;52.110;5.252;2023-08-24T06:46:41;15.3;;;13.7;;
82656;SDS011;72357;52.110;5.252;2023-08-24T06:48:17;15.6;;;13.9;;
82656;SDS011;72357;52.110;5.252;2023-08-24T06:49:53;14.7;;;13.1;;
82656;SDS011;72357;52.110;5.252;2023-08-24T06:53:06;16.61;;;13.5;;
82656;SDS011;72357;52.110;5.252;2023-08-24T06:54:42;15.0;;;13.4;;
82656;SDS011;72357;52.110;5.252;2023-08-24T06:56:19;16.61;;;13.9;;
82656;SDS011;72357;52.110;5.252;2023-08-24T06:59:32;14.8;;;13.3;;
82656;SDS011;72357;52.110;5.252;2023-08-24T07:01:08;15.0;;;13.0;;
82656;SDS011;72357;52.110;5.252;2023-08-24T07:02:45;18.7;;;14.4;;
82656;SDS011;72357;52.110;5.252;2023-08-24T07:07:34;15.9;;;12.7;;
82656;SDS011;72357;52.110;5.252;2023-08-24T07:09:11;16.5;;;13.5;;
82656;SDS011;72357;52.110;5.252;2023-08-24T07:10:47;16.4;;;13.4;;
82656;SDS011;72357;52.110;5.252;2023-08-24T07:14:00;14.5;;;12.9;;
82656;SDS011;72357;52.110;5.252;2023-08-24T07:15:36;20.3;;;13.2;;
82656;SDS011;72357;52.110;5.252;2023-08-24T07:17:12;13.9;;;12.4;;
82656;SDS011;72357;52.110;5.252;2023-08-24T07:20:25;17.61;;;13.1;;
82656;SDS011;72357;52.110;5.252;2023-08-24T07:22:01;16.3;;;12.9;;
82656;SDS011;72357;52.110;5.252;2023-08-24T07:23:37;16.7;;;12.3;;
82656;SDS011;72357;52.110;5.252;2023-08-24T07:25:13;13.9;;;12.5;;
82656;SDS011;72357;52.110;5.252;2023-08-24T07:28:26;16.9;;;11.9;;
82656;SDS011;72357;52.110;5.252;2023-08-24T07:30:02;14.8;;;11.9;;
82656;SDS011;72357;52.110;5.252;2023-08-24T07:31:39;16.7;;;11.5;;
82656;SDS011;72357;52.110;5.252;2023-08-24T07:34:51;12.2;;;10.8;;
82656;SDS011;72357;52.110;5.252;2023-08-24T07:36:28;13.7;;;11.4;;
82656;SDS011;72357;52.110;5.252;2023-08-24T07:38:04;13.1;;;11.7;;
82656;SDS011;72357;52.110;5.252;2023-08-24T07:41:16;12.6;;;11.3;;
82656;SDS011;72357;52.110;5.252;2023-08-24T07:42:53;14.2;;;11.9;;
82656;SDS011;72357;52.110;5.252;2023-08-24T07:44:30;13.9;;;11.7;;
82656;SDS011;72357;52.110;5.252;2023-08-24T07:46:06;12.6;;;10.5;;
82656;SDS011;72357;52.110;5.252;2023-08-24T07:49:19;14.6;;;10.7;;
82656;SDS011;72357;52.110;5.252;2023-08-24T07:50:55;12.9;;;10.4;;
82656;SDS011;72357;52.110;5.252;2023-08-24T07:52:32;13.4;;;10.7;;
82656;SDS011;72357;52.110;5.252;2023-08-24T07:55:45;11.5;;;10.3;;
82656;SDS011;72357;52.110;5.252;2023-08-24T07:57:21;13.5;;;9.81;;
82656;SDS011;72357;52.110;5.252;2023-08-24T07:58:57;12.5;;;9.6;;
82656;SDS011;72357;52.110;5.252;2023-08-24T08:02:09;13.5;;;10.8;;
82656;SDS011;72357;52.110;5.252;2023-08-24T08:03:46;13.6;;;10.3;;
82656;SDS011;72357;52.110;5.252;2023-08-24T08:05:22;12.4;;;10.5;;
82656;SDS011;72357;52.110;5.252;2023-08-24T08:08:34;11.5;;;10.3;;
82656;SDS011;72357;52.110;5.252;2023-08-24T08:10:10;13.0;;;9.81;;
82656;SDS011;72357;52.110;5.252;2023-08-24T08:11:46;13.7;;;9.9;;
82656;SDS011;72357;52.110;5.252;2023-08-24T08:13:22;11.4;;;9.4;;
82656;SDS011;72357;52.110;5.252;2023-08-24T08:16:35;11.6;;;9.31;;
82656;SDS011;72357;52.110;5.252;2023-08-24T08:18:12;10.9;;;9.0;;
82656;SDS011;72357;52.110;5.252;2023-08-24T08:19:48;10.7;;;9.4;;
82656;SDS011;72357;52.110;5.252;2023-08-24T08:23:00;10.7;;;9.6;;
82656;SDS011;72357;52.110;5.252;2023-08-24T08:24:36;12.6;;;9.21;;
82656;SDS011;72357;52.110;5.252;2023-08-24T08:26:12;10.0;;;8.81;;
82656;SDS011;72357;52.110;5.252;2023-08-24T08:29:26;11.7;;;9.21;;
82656;SDS011;72357;52.110;5.252;2023-08-24T08:31:02;10.1;;;8.1;;
82656;SDS011;72357;52.110;5.252;2023-08-24T08:32:38;9.21;;;8.31;;
82656;SDS011;72357;52.110;5.252;2023-08-24T08:34:14;10.3;;;8.71;;
82656;SDS011;72357;52.110;5.252;2023-08-24T08:37:26;11.0;;;9.6;;
82656;SDS011;72357;52.110;5.252;2023-08-24T08:39:03;10.9;;;8.81;;
82656;SDS011;72357;52.110;5.252;2023-08-24T08:40:40;10.1;;;8.6;;
82656;SDS011;72357;52.110;5.252;2023-08-24T08:43:53;8.9;;;8.0;;
82656;SDS011;72357;52.110;5.252;2023-08-24T08:45:30;9.0;;;7.9;;
82656;SDS011;72357;52.110;5.252;2023-08-24T08:47:07;10.0;;;8.2;;
82656;SDS011;72357;52.110;5.252;2023-08-24T08:50:22;11.4;;;7.6;;
82656;SDS011;72357;52.110;5.252;2023-08-24T08:52:01;8.1;;;7.3;;
82656;SDS011;72357;52.110;5.252;2023-08-24T08:53:38;10.1;;;6.7;;
82656;SDS011;72357;52.110;5.252;2023-08-24T08:55:15;9.4;;;6.2;;
82656;SDS011;72357;52.110;5.252;2023-08-24T08:58:29;9.1;;;6.6;;
82656;SDS011;72357;52.110;5.252;2023-08-24T09:00:08;9.4;;;6.3;;
82656;SDS011;72357;52.110;5.252;2023-08-24T09:01:45;7.4;;;5.8;;
82656;SDS011;72357;52.110;5.252;2023-08-24T09:04:59;9.6;;;5.9;;
82656;SDS011;72357;52.110;5.252;2023-08-24T09:06:35;8.71;;;6.4;;
82656;SDS011;72357;52.110;5.252;2023-08-24T09:08:11;7.8;;;5.8;;
82656;SDS011;72357;52.110;5.252;2023-08-24T09:09:48;10.0;;;6.5;;
82656;SDS011;72357;52.110;5.252;2023-08-24T09:13:01;8.1;;;5.5;;
82656;SDS011;72357;52.110;5.252;2023-08-24T09:14:38;10.1;;;6.5;;
82656;SDS011;72357;52.110;5.252;2023-08-24T09:16:14;9.1;;;6.6;;
82656;SDS011;72357;52.110;5.252;2023-08-24T09:19:27;8.31;;;6.0;;
82656;SDS011;72357;52.110;5.252;2023-08-24T09:21:07;9.6;;;6.3;;
82656;SDS011;72357;52.110;5.252;2023-08-24T09:26:05;8.31;;;6.2;;
82656;SDS011;72357;52.110;5.252;2023-08-24T09:27:41;9.0;;;6.2;;
82656;SDS011;72357;52.110;5.252;2023-08-24T09:29:18;8.9;;;5.7;;
82656;SDS011;72357;52.110;5.252;2023-08-24T09:30:54;7.6;;;5.6;;
82656;SDS011;72357;52.110;5.252;2023-08-24T09:34:08;6.9;;;6.2;;
82656;SDS011;72357;52.110;5.252;2023-08-24T09:35:44;6.9;;;5.6;;
82656;SDS011;72357;52.110;5.252;2023-08-24T09:37:20;8.31;;;5.4;;
82656;SDS011;72357;52.110;5.252;2023-08-24T09:40:34;5.6;;;4.91;;
82656;SDS011;72357;52.110;5.252;2023-08-24T09:42:10;10.8;;;6.0;;
82656;SDS011;72357;52.110;5.252;2023-08-24T09:43:48;6.2;;;5.11;;
82656;SDS011;72357;52.110;5.252;2023-08-24T09:45:24;6.6;;;5.4;;
82656;SDS011;72357;52.110;5.252;2023-08-24T09:48:37;7.6;;;5.11;;
82656;SDS011;72357;52.110;5.252;2023-08-24T09:50:13;9.71;;;5.2;;
82656;SDS011;72357;52.110;5.252;2023-08-24T09:51:50;9.5;;;6.5;;
82656;SDS011;72357;52.110;5.252;2023-08-24T09:55:08;10.4;;;6.1;;
82656;SDS011;72357;52.110;5.252;2023-08-24T09:56:46;7.0;;;5.7;;
82656;SDS011;72357;52.110;5.252;2023-08-24T09:58:26;7.5;;;5.2;;
82656;SDS011;72357;52.110;5.252;2023-08-24T10:00:04;9.21;;;6.0;;
82656;SDS011;72357;52.110;5.252;2023-08-24T10:03:21;9.5;;;5.7;;
82656;SDS011;72357;52.110;5.252;2023-08-24T10:05:01;10.4;;;6.3;;
82656;SDS011;72357;52.110;5.252;2023-08-24T10:06:39;8.4;;;5.9;;
82656;SDS011;72357;52.110;5.252;2023-08-24T10:09:58;8.4;;;5.9;;
82656;SDS011;72357;52.110;5.252;2023-08-24T10:11:40;7.1;;;4.7;;
82656;SDS011;72357;52.110;5.252;2023-08-24T10:13:29;7.9;;;4.61;;
82656;SDS011;72357;52.110;5.252;2023-08-24T10:15:26;7.8;;;4.5;;
82656;SDS011;72357;52.110;5.252;2023-08-24T10:17:03;7.0;;;4.2;;
82656;SDS011;72357;52.110;5.252;2023-08-24T10:20:17;7.0;;;4.2;;
82656;SDS011;72357;52.110;5.252;2023-08-24T10:21:55;7.2;;;4.61;;
82656;SDS011;72357;52.110;5.252;2023-08-24T10:23:33;8.6;;;4.91;;
82656;SDS011;72357;52.110;5.252;2023-08-24T10:25:12;6.2;;;4.0;;
82656;SDS011;72357;52.110;5.252;2023-08-24T10:28:27;6.3;;;4.61;;
82656;SDS011;72357;52.110;5.252;2023-08-24T10:30:05;7.6;;;5.11;;
82656;SDS011;72357;52.110;5.252;2023-08-24T10:31:43;8.2;;;4.8;;
82656;SDS011;72357;52.110;5.252;2023-08-24T10:34:58;5.4;;;4.41;;
82656;SDS011;72357;52.110;5.252;2023-08-24T10:36:35;7.4;;;5.0;;
82656;SDS011;72357;52.110;5.252;2023-08-24T10:38:22;8.71;;;4.3;;
82656;SDS011;72357;52.110;5.252;2023-08-24T10:40:11;4.3;;;3.9;;
82656;SDS011;72357;52.110;5.252;2023-08-24T10:43:26;5.8;;;4.7;;
82656;SDS011;72357;52.110;5.252;2023-08-24T10:45:02;5.4;;;4.61;;
82656;SDS011;72357;52.110;5.252;2023-08-24T10:46:39;8.31;;;4.7;;
82656;SDS011;72357;52.110;5.252;2023-08-24T10:48:15;5.6;;;5.0;;
82656;SDS011;72357;52.110;5.252;2023-08-24T10:51:42;8.0;;;5.11;;
82656;SDS011;72357;52.110;5.252;2023-08-24T10:53:37;8.2;;;5.2;;
82656;SDS011;72357;52.110;5.252;2023-08-24T10:55:21;7.6;;;5.4;;
82656;SDS011;72357;52.110;5.252;2023-08-24T10:56:59;6.8;;;5.3;;
82656;SDS011;72357;52.110;5.252;2023-08-24T10:58:39;7.2;;;5.5;;
82656;SDS011;72357;52.110;5.252;2023-08-24T11:01:58;10.4;;;6.6;;
82656;SDS011;72357;52.110;5.252;2023-08-24T11:03:34;9.1;;;5.9;;
82656;SDS011;72357;52.110;5.252;2023-08-24T11:05:18;12.3;;;8.0;;
82656;SDS011;72357;52.110;5.252;2023-08-24T11:09:04;8.5;;;6.8;;
82656;SDS011;72357;52.110;5.252;2023-08-24T11:10:45;7.9;;;6.1;;
82656;SDS011;72357;52.110;5.252;2023-08-24T11:12:22;13.0;;;9.1;;
82656;SDS011;72357;52.110;5.252;2023-08-24T11:14:14;7.3;;;6.3;;
82656;SDS011;72357;52.110;5.252;2023-08-24T11:15:51;15.5;;;10.5;;
82656;SDS011;72357;52.110;5.252;2023-08-24T11:17:29;12.2;;;6.9;;
82656;SDS011;72357;52.110;5.252;2023-08-24T11:20:44;11.1;;;9.21;;
82656;SDS011;72357;52.110;5.252;2023-08-24T11:22:21;14.8;;;12.7;;
82656;SDS011;72357;52.110;5.252;2023-08-24T11:23:59;14.3;;;12.9;;
82656;SDS011;72357;52.110;5.252;2023-08-24T11:27:13;15.0;;;13.4;;
82656;SDS011;72357;52.110;5.252;2023-08-24T11:28:49;15.3;;;11.7;;
82656;SDS011;72357;52.110;5.252;2023-08-24T11:30:29;16.7;;;13.5;;
82656;SDS011;72357;52.110;5.252;2023-08-24T11:32:07;14.5;;;12.9;;
82656;SDS011;72357;52.110;5.252;2023-08-24T11:35:19;14.7;;;13.1;;
82656;SDS011;72357;52.110;5.252;2023-08-24T11:36:57;14.8;;;13.1;;
82656;SDS011;72357;52.110;5.252;2023-08-24T11:38:36;13.3;;;11.5;;
82656;SDS011;72357;52.110;5.252;2023-08-24T11:41:57;15.6;;;13.2;;
82656;SDS011;72357;52.110;5.252;2023-08-24T11:43:35;16.11;;;12.7;;
82656;SDS011;72357;52.110;5.252;2023-08-24T11:45:11;16.7;;;13.8;;
82656;SDS011;72357;52.110;5.252;2023-08-24T11:46:49;12.8;;;11.4;;
82656;SDS011;72357;52.110;5.252;2023-08-24T11:50:02;16.2;;;12.1;;
82656;SDS011;72357;52.110;5.252;2023-08-24T11:51:38;14.7;;;12.7;;
82656;SDS011;72357;52.110;5.252;2023-08-24T11:53:16;13.8;;;12.4;;
82656;SDS011;72357;52.110;5.252;2023-08-24T11:56:28;13.8;;;12.4;;
82656;SDS011;72357;52.110;5.252;2023-08-24T11:58:04;14.6;;;10.5;;
82656;SDS011;72357;52.110;5.252;2023-08-24T11:59:40;15.5;;;11.6;;
82656;SDS011;72357;52.110;5.252;2023-08-24T12:02:55;13.1;;;11.2;;
82656;SDS011;72357;52.110;5.252;2023-08-24T12:04:37;14.5;;;11.6;;
82656;SDS011;72357;52.110;5.252;2023-08-24T12:06:15;15.7;;;13.8;;
82656;SDS011;72357;52.110;5.252;2023-08-24T12:07:53;15.3;;;13.8;;
82656;SDS011;72357;52.110;5.252;2023-08-24T12:11:10;16.8;;;12.6;;
82656;SDS011;72357;52.110;5.252;2023-08-24T12:12:48;13.8;;;11.6;;
82656;SDS011;72357;52.110;5.252;2023-08-24T12:14:25;15.8;;;12.2;;
82656;SDS011;72357;52.110;5.252;2023-08-24T12:16:02;13.3;;;11.8;;
82656;SDS011;72357;52.110;5.252;2023-08-24T12:19:20;14.7;;;11.5;;
82656;SDS011;72357;52.110;5.252;2023-08-24T12:20:59;11.2;;;8.31;;
82656;SDS011;72357;52.110;5.252;2023-08-24T12:22:36;14.9;;;12.8;;
82656;SDS011;72357;52.110;5.252;2023-08-24T12:25:53;14.8;;;12.9;;
82656;SDS011;72357;52.110;5.252;2023-08-24T12:27:30;14.6;;;13.0;;
82656;SDS011;72357;52.110;5.252;2023-08-24T12:29:08;17.8;;;14.8;;
82656;SDS011;72357;52.110;5.252;2023-08-24T12:30:46;14.9;;;13.4;;
82656;SDS011;72357;52.110;5.252;2023-08-24T12:34:00;16.7;;;14.1;;
82656;SDS011;72357;52.110;5.252;2023-08-24T12:35:37;18.11;;;13.9;;
82656;SDS011;72357;52.110;5.252;2023-08-24T12:37:14;17.0;;;13.8;;
82656;SDS011;72357;52.110;5.252;2023-08-24T12:40:27;14.1;;;12.6;;
82656;SDS011;72357;52.110;5.252;2023-08-24T12:42:03;16.5;;;12.4;;
82656;SDS011;72357;52.110;5.252;2023-08-24T12:43:40;15.1;;;13.5;;
82656;SDS011;72357;52.110;5.252;2023-08-24T12:46:52;13.4;;;11.9;;
82656;SDS011;72357;52.110;5.252;2023-08-24T12:48:28;10.0;;;7.8;;
82656;SDS011;72357;52.110;5.252;2023-08-24T12:50:05;10.4;;;8.5;;